Time;durP1;ratioP1;P1;durP2;ratioP2;P2;SDS_P1;SDS_P2;PMS_P1;PMS_P2;Temp;Humidity;BMP_temperature;BMP_pressure;BME280_temperature;BME280_humidity;BME280_pressure;Samples;Min_cycle;Max_cycle;Signal;HPM_P1;HPM_P2
2021/08/31 00:02:08;;;;;;;18.02;11.52;;;;;;;;;;4997428;28;20474;-48
2021/08/31 00:04:34;;;;;;;13.48;6.97;;;;;;;;;;4997675;28;20058;-47
2021/08/31 00:07:00;;;;;;;10.00;5.55;;;;;;;;;;4997556;28;20030;-47
2021/08/31 00:09:26;;;;;;;4.28;3.28;;;;;;;;;;4997156;28;20522;-47
2021/08/31 00:11:52;;;;;;;14.85;7.10;;;;;;;;;;4997320;28;20092;-47
2021/08/31 00:14:18;;;;;;;16.85;8.07;;;;;;;;;;4997384;28;20018;-49
2021/08/31 00:16:45;;;;;;;74.32;39.35;;;;;;;;;;4997093;28;20026;-49
2021/08/31 00:19:11;;;;;;;12.63;8.00;;;;;;;;;;4997255;28;20026;-47
2021/08/31 00:21:37;;;;;;;23.13;13.20;;;;;;;;;;4997111;28;20026;-48
2021/08/31 00:24:03;;;;;;;36.58;21.20;;;;;;;;;;4997206;28;20076;-49
2021/08/31 00:26:30;;;;;;;24.08;14.10;;;;;;;;;;4997174;28;20027;-49
2021/08/31 00:28:56;;;;;;;34.22;19.15;;;;;;;;;;4996992;28;20115;-49
2021/08/31 00:31:22;;;;;;;17.35;10.27;;;;;;;;;;4996815;28;20054;-47
2021/08/31 00:33:48;;;;;;;7.95;5.47;;;;;;;;;;4996922;28;20483;-48
2021/08/31 00:36:16;;;;;;;14.88;8.65;;;;;;;;;;4996900;28;20026;-49
2021/08/31 00:38:42;;;;;;;11.52;5.72;;;;;;;;;;4996875;28;20030;-47
2021/08/31 00:41:08;;;;;;;12.95;7.28;;;;;;;;;;4996748;28;20081;-48
2021/08/31 00:43:50;;;;;;;12.00;6.07;;;;;;;;;;4996879;28;20018;-48
2021/08/31 00:46:16;;;;;;;15.95;8.82;;;;;;;;;;4996584;28;20414;-49
2021/08/31 00:48:43;;;;;;;18.70;9.38;;;;;;;;;;4996705;28;20027;-48
2021/08/31 00:51:10;;;;;;;16.58;9.65;;;;;;;;;;4996627;28;20036;-47
2021/08/31 00:53:36;;;;;;;14.65;8.20;;;;;;;;;;4996514;28;20043;-48
2021/08/31 00:56:03;;;;;;;12.93;7.68;;;;;;;;;;4995371;28;20046;-48
2021/08/31 00:58:32;;;;;;;4.72;3.28;;;;;;;;;;4996548;28;20026;-49
2021/08/31 01:00:59;;;;;;;34.55;16.70;;;;;;;;;;4996364;28;20052;-48
2021/08/31 01:03:25;;;;;;;11.07;6.38;;;;;;;;;;4996094;28;20371;-48
2021/08/31 01:05:51;;;;;;;10.70;5.05;;;;;;;;;;4995500;28;20022;-46
2021/08/31 01:08:18;;;;;;;17.58;7.22;;;;;;;;;;4996297;28;20137;-48
2021/08/31 01:10:44;;;;;;;16.02;10.00;;;;;;;;;;4996132;28;20109;-46
2021/08/31 01:13:10;;;;;;;21.75;13.25;;;;;;;;;;4996213;28;20124;-47
2021/08/31 01:15:36;;;;;;;22.00;13.10;;;;;;;;;;4996116;28;20080;-48
2021/08/31 01:18:17;;;;;;;48.15;28.67;;;;;;;;;;4996220;28;20496;-47
2021/08/31 01:20:46;;;;;;;31.00;18.02;;;;;;;;;;4995976;28;20069;-47
2021/08/31 01:23:12;;;;;;;18.90;9.73;;;;;;;;;;4996127;28;20073;-47
2021/08/31 01:25:38;;;;;;;10.10;4.82;;;;;;;;;;4995944;28;20081;-47
2021/08/31 01:28:05;;;;;;;9.57;4.50;;;;;;;;;;4995873;28;20466;-47
2021/08/31 01:30:31;;;;;;;12.32;6.43;;;;;;;;;;4995769;28;20374;-47
2021/08/31 01:32:57;;;;;;;13.93;5.63;;;;;;;;;;4995707;28;20505;-45
2021/08/31 01:35:23;;;;;;;8.20;5.05;;;;;;;;;;4996003;28;20053;-47
2021/08/31 01:37:50;;;;;;;17.95;10.02;;;;;;;;;;4995753;28;20410;-47
2021/08/31 01:40:16;;;;;;;35.08;18.73;;;;;;;;;;4995624;28;20026;-48
2021/08/31 01:42:42;;;;;;;18.10;11.05;;;;;;;;;;4995891;28;20030;-47
2021/08/31 01:45:08;;;;;;;15.13;8.52;;;;;;;;;;4995693;28;20026;-48
2021/08/31 01:47:34;;;;;;;9.43;5.05;;;;;;;;;;4995482;28;20390;-47
2021/08/31 01:50:00;;;;;;;12.65;8.10;;;;;;;;;;4995476;28;20029;-47
2021/08/31 01:52:26;;;;;;;16.80;8.15;;;;;;;;;;4995356;28;20038;-47
2021/08/31 01:54:52;;;;;;;11.43;6.95;;;;;;;;;;4995346;28;20128;-47
2021/08/31 01:57:18;;;;;;;30.80;17.20;;;;;;;;;;4995399;28;20487;-48
2021/08/31 01:59:44;;;;;;;14.48;7.97;;;;;;;;;;4995401;28;20018;-48
2021/08/31 02:02:10;;;;;;;5.75;3.78;;;;;;;;;;4995290;28;20023;-49
2021/08/31 02:04:36;;;;;;;21.88;12.65;;;;;;;;;;4995319;28;20034;-48
2021/08/31 02:07:02;;;;;;;31.05;14.73;;;;;;;;;;4995152;28;20370;-48
2021/08/31 02:09:29;;;;;;;12.75;6.47;;;;;;;;;;4994875;28;20117;-47
2021/08/31 02:11:55;;;;;;;24.02;15.55;;;;;;;;;;4994951;28;20040;-47
2021/08/31 02:14:21;;;;;;;20.02;11.57;;;;;;;;;;4994954;28;20076;-47
2021/08/31 02:16:50;;;;;;;29.63;17.13;;;;;;;;;;4994386;28;20137;-47
2021/08/31 02:19:16;;;;;;;17.73;9.85;;;;;;;;;;4994947;28;20019;-46
2021/08/31 02:21:42;;;;;;;15.05;7.63;;;;;;;;;;4994752;28;20030;-46
2021/08/31 02:24:11;;;;;;;28.17;14.70;;;;;;;;;;4994820;28;20026;-46
2021/08/31 02:26:37;;;;;;;12.02;7.90;;;;;;;;;;4994790;28;20046;-47
2021/08/31 02:29:04;;;;;;;12.77;6.45;;;;;;;;;;4994692;28;20389;-47
2021/08/31 02:31:30;;;;;;;11.00;6.90;;;;;;;;;;4994762;28;20030;-47
2021/08/31 02:33:56;;;;;;;14.75;8.00;;;;;;;;;;4994539;28;20137;-46
2021/08/31 02:36:22;;;;;;;18.73;10.85;;;;;;;;;;4994526;28;20109;-46
2021/08/31 02:38:48;;;;;;;16.77;9.20;;;;;;;;;;4994519;28;20100;-48
2021/08/31 02:41:15;;;;;;;16.60;7.95;;;;;;;;;;4994530;28;20659;-46
2021/08/31 02:43:41;;;;;;;5.18;4.40;;;;;;;;;;4994603;28;20466;-48
2021/08/31 02:46:07;;;;;;;8.13;5.25;;;;;;;;;;4994371;28;20026;-47
2021/08/31 02:48:33;;;;;;;13.02;8.32;;;;;;;;;;4994665;28;20022;-48
2021/08/31 02:50:59;;;;;;;6.50;4.68;;;;;;;;;;4994678;28;20156;-47
2021/08/31 02:53:25;;;;;;;6.78;4.53;;;;;;;;;;4994335;28;20410;-47
2021/08/31 02:55:51;;;;;;;11.65;6.85;;;;;;;;;;4994556;28;20034;-47
2021/08/31 02:58:17;;;;;;;17.67;10.27;;;;;;;;;;4994244;28;20030;-48
2021/08/31 03:00:53;;;;;;;18.27;9.40;;;;;;;;;;4994281;28;20019;-47
2021/08/31 03:03:19;;;;;;;10.07;6.43;;;;;;;;;;4994400;28;20025;-47
2021/08/31 03:05:45;;;;;;;7.85;5.50;;;;;;;;;;4994378;28;20081;-47
2021/08/31 03:08:11;;;;;;;6.82;5.00;;;;;;;;;;4994246;28;20030;-47
2021/08/31 03:10:39;;;;;;;9.93;4.70;;;;;;;;;;4994605;28;20050;-47
2021/08/31 03:13:05;;;;;;;7.22;4.75;;;;;;;;;;4994048;28;20054;-47
2021/08/31 03:15:31;;;;;;;6.45;4.78;;;;;;;;;;4994051;28;20406;-47
2021/08/31 03:17:57;;;;;;;17.13;11.43;;;;;;;;;;4994148;28;20023;-47
2021/08/31 03:20:23;;;;;;;19.17;12.43;;;;;;;;;;4993979;28;20031;-47
2021/08/31 03:22:50;;;;;;;16.08;9.52;;;;;;;;;;4994113;28;20526;-47
2021/08/31 03:25:16;;;;;;;15.15;9.75;;;;;;;;;;4992565;28;20046;-47
2021/08/31 03:27:44;;;;;;;10.13;5.10;;;;;;;;;;4993383;28;20027;-47
2021/08/31 03:30:13;;;;;;;10.23;6.72;;;;;;;;;;4993891;28;20157;-49
2021/08/31 03:32:42;;;;;;;8.95;5.60;;;;;;;;;;4993652;28;20062;-48
2021/08/31 03:35:10;;;;;;;6.28;3.70;;;;;;;;;;4994039;28;20038;-47
2021/08/31 03:37:36;;;;;;;6.80;3.95;;;;;;;;;;4994113;28;20034;-48
2021/08/31 03:40:02;;;;;;;10.73;7.45;;;;;;;;;;4993848;28;20434;-47
2021/08/31 03:42:31;;;;;;;12.95;8.80;;;;;;;;;;4993807;28;20030;-48
2021/08/31 03:44:57;;;;;;;7.97;4.82;;;;;;;;;;4993910;28;20032;-47
2021/08/31 03:47:23;;;;;;;11.65;4.50;;;;;;;;;;4993959;28;20049;-48
2021/08/31 03:49:49;;;;;;;7.78;5.28;;;;;;;;;;4993888;28;20022;-48
2021/08/31 03:52:15;;;;;;;9.07;5.15;;;;;;;;;;4993480;28;20474;-48
2021/08/31 03:54:41;;;;;;;24.63;13.85;;;;;;;;;;4993581;28;20052;-47
2021/08/31 03:57:07;;;;;;;14.65;9.13;;;;;;;;;;4993576;28;20046;-47
2021/08/31 03:59:36;;;;;;;19.33;12.48;;;;;;;;;;4993525;28;20101;-48
2021/08/31 04:02:02;;;;;;;16.40;9.90;;;;;;;;;;4993512;28;20019;-47
2021/08/31 04:04:30;;;;;;;7.25;5.63;;;;;;;;;;4993645;28;20503;-47
2021/08/31 04:06:59;;;;;;;14.80;8.70;;;;;;;;;;4993409;28;20070;-49
2021/08/31 04:09:25;;;;;;;19.75;12.32;;;;;;;;;;4993390;28;20057;-46
2021/08/31 04:11:52;;;;;;;44.35;21.63;;;;;;;;;;4993534;28;20031;-49
2021/08/31 04:14:18;;;;;;;33.72;18.70;;;;;;;;;;4993474;28;20056;-47
2021/08/31 04:16:44;;;;;;;25.65;14.93;;;;;;;;;;4993380;28;20022;-46
2021/08/31 04:19:10;;;;;;;43.63;24.70;;;;;;;;;;4993507;28;20037;-47
2021/08/31 04:21:36;;;;;;;11.15;7.13;;;;;;;;;;4993339;28;20033;-48
2021/08/31 04:24:02;;;;;;;15.60;10.00;;;;;;;;;;4993395;28;20038;-46
2021/08/31 04:26:28;;;;;;;33.17;22.00;;;;;;;;;;4993356;28;20110;-48
2021/08/31 04:28:54;;;;;;;37.10;22.60;;;;;;;;;;4993124;28;20023;-47
2021/08/31 04:31:22;;;;;;;39.97;25.25;;;;;;;;;;4993277;28;20023;-48
2021/08/31 04:33:48;;;;;;;48.05;27.85;;;;;;;;;;4993390;28;20147;-48
2021/08/31 04:36:14;;;;;;;36.30;21.23;;;;;;;;;;4993568;28;20031;-48
2021/08/31 04:38:40;;;;;;;36.33;22.13;;;;;;;;;;4994041;28;20470;-48
2021/08/31 04:41:08;;;;;;;35.67;19.67;;;;;;;;;;4996850;28;20022;-48
2021/08/31 04:43:37;;;;;;;25.92;15.50;;;;;;;;;;4996781;28;20029;-48
2021/08/31 04:46:03;;;;;;;26.48;14.68;;;;;;;;;;4996798;28;20505;-49
2021/08/31 04:48:29;;;;;;;21.70;13.18;;;;;;;;;;4996629;28;20037;-49
2021/08/31 04:50:55;;;;;;;13.98;8.18;;;;;;;;;;4996734;28;20019;-48
2021/08/31 04:53:22;;;;;;;19.13;10.73;;;;;;;;;;4996591;28;20344;-48
2021/08/31 04:55:51;;;;;;;24.73;14.57;;;;;;;;;;4996759;28;20018;-48
2021/08/31 04:58:17;;;;;;;14.00;8.20;;;;;;;;;;4996522;28;20054;-49
2021/08/31 05:00:43;;;;;;;17.65;10.77;;;;;;;;;;4996637;28;20027;-49
2021/08/31 05:03:11;;;;;;;17.85;9.80;;;;;;;;;;4996475;28;20034;-48
2021/08/31 05:05:38;;;;;;;12.45;8.55;;;;;;;;;;4996702;28;20053;-47
2021/08/31 05:08:04;;;;;;;14.40;9.88;;;;;;;;;;4996451;28;20040;-48
2021/08/31 05:10:30;;;;;;;10.82;7.28;;;;;;;;;;4994801;28;20138;-48
2021/08/31 05:12:58;;;;;;;15.27;10.40;;;;;;;;;;4996028;28;20038;-48
2021/08/31 05:15:24;;;;;;;11.13;6.80;;;;;;;;;;4996415;28;20022;-49
2021/08/31 05:17:50;;;;;;;9.05;6.30;;;;;;;;;;4994747;28;20468;-50
2021/08/31 05:20:18;;;;;;;10.07;6.47;;;;;;;;;;4996146;28;20030;-49
2021/08/31 05:22:44;;;;;;;13.73;10.23;;;;;;;;;;4996075;28;20026;-47
2021/08/31 05:25:10;;;;;;;15.38;10.55;;;;;;;;;;4996095;28;20054;-48
2021/08/31 05:27:36;;;;;;;9.75;6.88;;;;;;;;;;4996033;28;20030;-48
2021/08/31 05:30:03;;;;;;;11.32;7.75;;;;;;;;;;4996270;28;20026;-49
2021/08/31 05:32:29;;;;;;;8.35;6.40;;;;;;;;;;4996040;28;20031;-48
2021/08/31 05:34:55;;;;;;;25.55;14.43;;;;;;;;;;4995994;28;20062;-47
2021/08/31 05:37:21;;;;;;;13.05;8.20;;;;;;;;;;4995808;28;20022;-48
2021/08/31 05:39:49;;;;;;;35.55;17.38;;;;;;;;;;4995766;28;20061;-50
2021/08/31 05:42:15;;;;;;;12.50;7.13;;;;;;;;;;4995659;28;20403;-45
2021/08/31 05:44:42;;;;;;;14.00;7.07;;;;;;;;;;4995801;28;20033;-47
2021/08/31 05:47:08;;;;;;;14.70;5.85;;;;;;;;;;4995719;28;20022;-47
2021/08/31 05:49:34;;;;;;;24.35;13.40;;;;;;;;;;4995541;28;20554;-48
2021/08/31 05:52:01;;;;;;;38.92;20.77;;;;;;;;;;4995063;28;20027;-47
2021/08/31 05:54:27;;;;;;;11.15;6.32;;;;;;;;;;4995688;28;20046;-47
2021/08/31 05:56:54;;;;;;;28.95;17.33;;;;;;;;;;4995431;28;20548;-47
2021/08/31 05:59:20;;;;;;;36.55;20.80;;;;;;;;;;4995211;28;20034;-47
2021/08/31 06:01:46;;;;;;;26.33;14.30;;;;;;;;;;4995485;28;20474;-47
2021/08/31 06:04:13;;;;;;;50.42;24.00;;;;;;;;;;4995721;28;20033;-47
2021/08/31 06:06:39;;;;;;;30.55;18.27;;;;;;;;;;4995591;28;20026;-47
2021/08/31 06:09:06;;;;;;;29.25;16.67;;;;;;;;;;4995151;28;20046;-47
2021/08/31 06:11:40;;;;;;;17.40;10.90;;;;;;;;;;4995218;28;20065;-47
2021/08/31 06:14:07;;;;;;;41.55;21.95;;;;;;;;;;4995208;28;20043;-48
2021/08/31 06:16:34;;;;;;;33.60;17.00;;;;;;;;;;4995136;28;20025;-46
2021/08/31 06:19:01;;;;;;;42.85;23.60;;;;;;;;;;4995104;28;20026;-47
2021/08/31 06:21:27;;;;;;;34.20;18.85;;;;;;;;;;4995069;28;20426;-48
2021/08/31 06:23:53;;;;;;;34.20;16.98;;;;;;;;;;4995069;28;20027;-48
2021/08/31 06:26:19;;;;;;;33.83;18.67;;;;;;;;;;4994958;28;20033;-47
2021/08/31 06:28:45;;;;;;;32.70;17.63;;;;;;;;;;4994840;28;20056;-49
2021/08/31 06:31:11;;;;;;;42.38;18.35;;;;;;;;;;4994877;28;20018;-48
2021/08/31 06:33:38;;;;;;;55.97;25.95;;;;;;;;;;4994765;28;20038;-47
2021/08/31 06:36:06;;;;;;;20.13;10.50;;;;;;;;;;4995065;28;20034;-48
2021/08/31 06:38:32;;;;;;;35.85;14.23;;;;;;;;;;4994718;28;20513;-47
2021/08/31 06:40:58;;;;;;;26.30;12.73;;;;;;;;;;4994803;28;20039;-50
2021/08/31 06:43:24;;;;;;;13.18;7.40;;;;;;;;;;4994574;28;20026;-49
2021/08/31 06:45:50;;;;;;;20.42;11.07;;;;;;;;;;4994574;28;20101;-48
2021/08/31 06:48:17;;;;;;;20.45;9.35;;;;;;;;;;4994445;28;20034;-48
2021/08/31 06:50:43;;;;;;;22.95;10.88;;;;;;;;;;4994675;28;20026;-48
2021/08/31 06:53:09;;;;;;;21.05;11.00;;;;;;;;;;4994464;28;20037;-48
2021/08/31 06:55:35;;;;;;;12.30;7.15;;;;;;;;;;4994599;28;20497;-51
2021/08/31 06:58:01;;;;;;;8.52;5.40;;;;;;;;;;4994399;28;20470;-47
2021/08/31 07:00:29;;;;;;;6.22;3.25;;;;;;;;;;4994470;28;20033;-48
2021/08/31 07:02:55;;;;;;;8.60;6.30;;;;;;;;;;4994412;28;20046;-47
2021/08/31 07:05:21;;;;;;;8.00;4.85;;;;;;;;;;4994470;28;20018;-49
2021/08/31 07:07:47;;;;;;;5.95;3.63;;;;;;;;;;4994739;28;20019;-51
2021/08/31 07:10:13;;;;;;;17.92;8.15;;;;;;;;;;4994041;28;20086;-50
2021/08/31 07:12:40;;;;;;;8.52;5.35;;;;;;;;;;4994088;28;20486;-47
2021/08/31 07:15:08;;;;;;;10.55;5.65;;;;;;;;;;4994403;28;20030;-48
2021/08/31 07:17:34;;;;;;;10.50;5.75;;;;;;;;;;4994197;28;20406;-48
2021/08/31 07:20:00;;;;;;;8.50;5.20;;;;;;;;;;4993955;28;20030;-48
2021/08/31 07:22:26;;;;;;;27.92;14.48;;;;;;;;;;4994121;28;20487;-52
2021/08/31 07:24:52;;;;;;;18.55;10.73;;;;;;;;;;4994184;28;20037;-52
2021/08/31 07:27:18;;;;;;;15.32;7.03;;;;;;;;;;4994263;28;20479;-52
2021/08/31 07:29:44;;;;;;;15.57;7.35;;;;;;;;;;4994122;28;20053;-52
2021/08/31 07:32:10;;;;;;;25.00;12.88;;;;;;;;;;4994173;28;20034;-48
2021/08/31 07:34:38;;;;;;;8.20;4.38;;;;;;;;;;4994159;28;20042;-51
2021/08/31 07:37:05;;;;;;;14.57;7.25;;;;;;;;;;4994006;28;20113;-52
2021/08/31 07:39:31;;;;;;;17.65;7.15;;;;;;;;;;4993893;28;20552;-50
2021/08/31 07:41:58;;;;;;;13.10;7.13;;;;;;;;;;4993772;28;20100;-47
2021/08/31 07:44:24;;;;;;;7.10;3.83;;;;;;;;;;4993948;28;20119;-49
2021/08/31 07:46:51;;;;;;;4.00;2.92;;;;;;;;;;4993849;28;20022;-47
2021/08/31 07:49:17;;;;;;;7.72;4.05;;;;;;;;;;4993787;28;20093;-46
2021/08/31 07:51:45;;;;;;;14.57;6.90;;;;;;;;;;4994051;28;20029;-52
2021/08/31 07:54:11;;;;;;;9.45;3.83;;;;;;;;;;4993853;28;20065;-50
2021/08/31 07:56:38;;;;;;;5.28;2.25;;;;;;;;;;4993731;28;20121;-51
2021/08/31 07:59:04;;;;;;;3.30;2.40;;;;;;;;;;4993731;28;20030;-52
2021/08/31 08:01:30;;;;;;;4.53;2.78;;;;;;;;;;4993816;28;20142;-52
2021/08/31 08:03:57;;;;;;;7.95;4.30;;;;;;;;;;4993624;28;20064;-50
2021/08/31 08:06:26;;;;;;;12.68;7.18;;;;;;;;;;4993825;28;20023;-48
2021/08/31 08:08:52;;;;;;;10.65;4.07;;;;;;;;;;4993565;28;20051;-48
2021/08/31 08:11:21;;;;;;;7.20;3.85;;;;;;;;;;4993741;28;20080;-47
2021/08/31 08:13:47;;;;;;;13.43;7.45;;;;;;;;;;4994932;28;20399;-50
2021/08/31 08:16:13;;;;;;;12.70;5.05;;;;;;;;;;4997627;28;20023;-47
2021/08/31 08:18:39;;;;;;;23.95;8.88;;;;;;;;;;4997302;28;20022;-51
2021/08/31 08:21:05;;;;;;;7.25;4.68;;;;;;;;;;4997463;28;20109;-52
2021/08/31 08:23:31;;;;;;;13.00;6.70;;;;;;;;;;4997337;28;20383;-51
2021/08/31 08:25:57;;;;;;;11.90;4.35;;;;;;;;;;4997232;28;20084;-52
2021/08/31 08:28:24;;;;;;;8.05;3.30;;;;;;;;;;4997225;28;20026;-49
2021/08/31 08:30:51;;;;;;;9.77;4.57;;;;;;;;;;4997318;28;20023;-52
2021/08/31 08:33:18;;;;;;;7.55;4.45;;;;;;;;;;4997060;28;20172;-48
2021/08/31 08:35:44;;;;;;;6.20;2.30;;;;;;;;;;4995905;28;20038;-47
2021/08/31 08:38:10;;;;;;;9.98;6.03;;;;;;;;;;4996933;28;20031;-48
2021/08/31 08:40:36;;;;;;;5.32;2.63;;;;;;;;;;4997253;28;20104;-52
2021/08/31 08:43:06;;;;;;;8.43;3.50;;;;;;;;;;4996785;28;20024;-51
2021/08/31 08:45:32;;;;;;;3.70;2.75;;;;;;;;;;4997095;28;20402;-53
2021/08/31 08:48:01;;;;;;;14.40;6.05;;;;;;;;;;4996770;28;20029;-47
2021/08/31 08:50:28;;;;;;;10.55;5.55;;;;;;;;;;4996950;28;20049;-48
2021/08/31 08:52:54;;;;;;;4.00;2.80;;;;;;;;;;4996757;28;20089;-51
2021/08/31 08:55:24;;;;;;;8.43;5.28;;;;;;;;;;4996762;28;20026;-52
2021/08/31 08:57:51;;;;;;;10.50;3.28;;;;;;;;;;4996307;28;20014;-47
2021/08/31 09:00:18;;;;;;;12.05;6.00;;;;;;;;;;4996603;28;20077;-51
2021/08/31 09:02:47;;;;;;;28.90;14.75;;;;;;;;;;4996089;28;20025;-51
2021/08/31 09:05:31;;;;;;;6.22;3.88;;;;;;;;;;4996551;28;20121;-53
2021/08/31 09:08:06;;;;;;;15.27;6.60;;;;;;;;;;4996377;28;20034;-47
2021/08/31 09:10:32;;;;;;;20.60;11.60;;;;;;;;;;4994632;28;20081;-47
2021/08/31 09:12:59;;;;;;;21.23;12.52;;;;;;;;;;4994963;28;20037;-50
2021/08/31 09:15:30;;;;;;;8.15;4.70;;;;;;;;;;4995056;28;20502;-52
2021/08/31 09:18:06;;;;;;;67.05;35.45;;;;;;;;;;4994850;28;20030;-50
2021/08/31 09:20:33;;;;;;;35.03;17.63;;;;;;;;;;4995651;28;20062;-52
2021/08/31 09:22:59;;;;;;;9.38;5.65;;;;;;;;;;4996149;28;20111;-52
2021/08/31 09:25:41;;;;;;;11.45;5.60;;;;;;;;;;4995014;28;20513;-52
2021/08/31 09:28:21;;;;;;;23.17;9.43;;;;;;;;;;4996296;28;20042;-52
2021/08/31 09:30:56;;;;;;;14.77;5.65;;;;;;;;;;4996019;28;20026;-51
2021/08/31 09:33:26;;;;;;;60.00;21.92;;;;;;;;;;4995828;28;20386;-49
2021/08/31 09:36:04;;;;;;;4.93;3.30;;;;;;;;;;4996217;28;20434;-50
2021/08/31 09:38:51;;;;;;;10.32;2.10;;;;;;;;;;4996093;28;20030;-48
2021/08/31 09:41:29;;;;;;;4.07;2.53;;;;;;;;;;4996002;28;20030;-49
2021/08/31 09:43:56;;;;;;;13.05;6.30;;;;;;;;;;4995838;28;20030;-48
2021/08/31 09:46:22;;;;;;;8.82;3.83;;;;;;;;;;4995991;28;20145;-48
2021/08/31 09:48:48;;;;;;;6.43;2.58;;;;;;;;;;4996017;28;20019;-48
2021/08/31 09:51:17;;;;;;;2.30;1.60;;;;;;;;;;4995865;28;20490;-48
2021/08/31 09:53:46;;;;;;;2.38;1.35;;;;;;;;;;4995596;28;20038;-49
2021/08/31 09:56:12;;;;;;;2.53;1.60;;;;;;;;;;4995590;28;20097;-49
2021/08/31 09:58:39;;;;;;;2.88;1.23;;;;;;;;;;4995583;28;20037;-48
2021/08/31 10:01:06;;;;;;;7.78;4.18;;;;;;;;;;4995515;28;20029;-47
2021/08/31 10:03:33;;;;;;;8.77;4.50;;;;;;;;;;4995379;28;20061;-49
2021/08/31 10:06:00;;;;;;;53.53;22.60;;;;;;;;;;4995387;28;20038;-50
2021/08/31 10:08:28;;;;;;;6.13;3.88;;;;;;;;;;4995171;28;20085;-50
2021/08/31 10:10:55;;;;;;;70.80;28.25;;;;;;;;;;4995256;28;20141;-50
2021/08/31 10:13:22;;;;;;;12.20;5.68;;;;;;;;;;4995170;28;20081;-50
2021/08/31 10:15:52;;;;;;;9.23;3.45;;;;;;;;;;4995863;28;20384;-48
2021/08/31 10:18:20;;;;;;;4.78;2.50;;;;;;;;;;4995509;28;20022;-49
2021/08/31 10:21:02;;;;;;;5.88;3.35;;;;;;;;;;4995171;28;20034;-48
2021/08/31 10:23:32;;;;;;;6.97;2.88;;;;;;;;;;4995221;28;20062;-49
2021/08/31 10:26:17;;;;;;;4.55;1.63;;;;;;;;;;4993565;28;20463;-49
2021/08/31 10:28:43;;;;;;;2.42;2.10;;;;;;;;;;4995045;28;20084;-46
2021/08/31 10:31:27;;;;;;;1.80;1.40;;;;;;;;;;4995337;28;20031;-48
2021/08/31 10:33:53;;;;;;;2.60;1.42;;;;;;;;;;4994817;28;20034;-47
2021/08/31 10:36:34;;;;;;;4.80;2.17;;;;;;;;;;4994476;28;20022;-47
2021/08/31 10:39:00;;;;;;;;;;;;;;;;;;4995125;28;20041;-46
2021/08/31 10:41:36;;;;;;;2.25;1.48;;;;;;;;;;4994677;28;20273;-48
2021/08/31 10:44:04;;;;;;;2.08;1.33;;;;;;;;;;4994728;28;20022;-50
2021/08/31 10:46:51;;;;;;;3.35;1.48;;;;;;;;;;4994952;28;20080;-48
2021/08/31 10:49:17;;;;;;;3.95;1.27;;;;;;;;;;4994703;28;20029;-47
2021/08/31 10:52:02;;;;;;;10.02;6.00;;;;;;;;;;4994965;28;20069;-49
2021/08/31 10:54:47;;;;;;;12.63;7.68;;;;;;;;;;4994713;28;20379;-48
2021/08/31 10:57:32;;;;;;;8.40;5.20;;;;;;;;;;4994579;28;20023;-51
2021/08/31 10:59:58;;;;;;;4.18;1.65;;;;;;;;;;4994671;28;20034;-47
2021/08/31 11:02:43;;;;;;;3.58;2.25;;;;;;;;;;4994716;28;20128;-52
2021/08/31 11:05:21;;;;;;;5.57;3.85;;;;;;;;;;4994271;28;20072;-50
2021/08/31 11:08:07;;;;;;;3.72;2.25;;;;;;;;;;4994285;28;20030;-49
2021/08/31 11:10:37;;;;;;;7.55;1.58;;;;;;;;;;4987163;28;20085;-47
2021/08/31 11:13:10;;;;;;;2.58;1.30;;;;;;;;;;4994410;28;20030;-49
2021/08/31 11:15:37;;;;;;;1.23;1.00;;;;;;;;;;4994266;28;20118;-51
2021/08/31 11:18:07;;;;;;;1.95;0.90;;;;;;;;;;4994349;28;20426;-51
2021/08/31 11:20:33;;;;;;;1.40;1.30;;;;;;;;;;4994382;28;20515;-51
2021/08/31 11:23:03;;;;;;;1.83;1.00;;;;;;;;;;4994246;28;20256;-51
2021/08/31 11:25:33;;;;;;;1.58;1.00;;;;;;;;;;4994095;28;20026;-50
2021/08/31 11:28:03;;;;;;;0.85;0.80;;;;;;;;;;4994156;28;20018;-48
2021/08/31 11:30:30;;;;;;;4.43;0.80;;;;;;;;;;4994150;28;20034;-47
2021/08/31 11:33:12;;;;;;;2.63;0.80;;;;;;;;;;4994034;28;20093;-50
2021/08/31 11:35:38;;;;;;;1.00;0.80;;;;;;;;;;4993928;28;20038;-47
2021/08/31 11:38:04;;;;;;;1.38;0.63;;;;;;;;;;4993986;28;20094;-47
2021/08/31 11:40:30;;;;;;;2.45;0.85;;;;;;;;;;4994007;28;20483;-47
2021/08/31 11:42:57;;;;;;;1.10;0.93;;;;;;;;;;4994191;28;20030;-47
2021/08/31 11:45:33;;;;;;;2.17;1.10;;;;;;;;;;4993972;28;20109;-46
2021/08/31 11:47:59;;;;;;;0.93;0.73;;;;;;;;;;4993815;28;20435;-51
2021/08/31 11:50:25;;;;;;;2.97;1.00;;;;;;;;;;4996776;28;20034;-52
2021/08/31 11:52:53;;;;;;;169.23;125.28;;;;;;;;;;4997881;28;20019;-50
2021/08/31 11:55:24;;;;;;;16.55;10.40;;;;;;;;;;4997892;28;20034;-51
2021/08/31 11:57:50;;;;;;;31.90;18.57;;;;;;;;;;4997841;28;20027;-50
2021/08/31 12:00:16;;;;;;;116.03;80.45;;;;;;;;;;4997781;28;20113;-50
2021/08/31 12:02:42;;;;;;;77.47;44.22;;;;;;;;;;4997768;28;20048;-51
2021/08/31 12:05:09;;;;;;;125.80;68.13;;;;;;;;;;4997470;28;20019;-51
2021/08/31 12:07:40;;;;;;;48.45;30.30;;;;;;;;;;4997447;28;20030;-48
2021/08/31 12:10:07;;;;;;;27.50;17.35;;;;;;;;;;4997180;28;20121;-47
2021/08/31 12:12:34;;;;;;;38.20;24.23;;;;;;;;;;4997381;28;20516;-50
2021/08/31 12:15:00;;;;;;;216.63;153.10;;;;;;;;;;4997276;28;20034;-50
2021/08/31 12:17:29;;;;;;;202.88;128.38;;;;;;;;;;4997378;28;20459;-50
2021/08/31 12:20:12;;;;;;;91.47;51.83;;;;;;;;;;4997060;28;20038;-48
2021/08/31 12:22:42;;;;;;;19.65;12.55;;;;;;;;;;4997168;28;20077;-46
2021/08/31 12:25:09;;;;;;;13.48;7.40;;;;;;;;;;4997174;28;20032;-48
2021/08/31 12:27:42;;;;;;;29.63;16.30;;;;;;;;;;4997024;28;20422;-48
2021/08/31 12:30:09;;;;;;;25.95;12.00;;;;;;;;;;4997140;28;20367;-50
2021/08/31 12:32:36;;;;;;;5.13;2.50;;;;;;;;;;4997085;28;20023;-48
2021/08/31 12:35:23;;;;;;;412.48;306.27;;;;;;;;;;4996857;28;20105;-48
2021/08/31 12:38:03;;;;;;;21.08;15.88;;;;;;;;;;4996184;28;20171;-49
2021/08/31 12:40:29;;;;;;;31.33;12.23;;;;;;;;;;4995470;28;20402;-49
2021/08/31 12:43:03;;;;;;;13.05;7.65;;;;;;;;;;4997049;28;20030;-48
2021/08/31 12:45:29;;;;;;;32.10;18.13;;;;;;;;;;4997204;28;20057;-48
2021/08/31 12:47:56;;;;;;;43.72;25.67;;;;;;;;;;4996709;28;20026;-48
2021/08/31 12:50:22;;;;;;;45.85;28.38;;;;;;;;;;4996657;28;20394;-48
2021/08/31 12:53:02;;;;;;;43.92;26.13;;;;;;;;;;4996659;28;20022;-49
2021/08/31 12:55:34;;;;;;;19.85;8.73;;;;;;;;;;4996779;28;20053;-48
2021/08/31 12:58:21;;;;;;;2.67;2.00;;;;;;;;;;4996818;28;20022;-47
2021/08/31 13:01:02;;;;;;;4.32;1.65;;;;;;;;;;4996447;28;20166;-47
2021/08/31 13:03:29;;;;;;;12.13;7.20;;;;;;;;;;4996392;28;20056;-49
2021/08/31 13:05:55;;;;;;;8.73;5.05;;;;;;;;;;4996359;28;20426;-49
2021/08/31 13:08:21;;;;;;;39.38;22.92;;;;;;;;;;4996218;28;20046;-48
2021/08/31 13:10:47;;;;;;;33.47;22.52;;;;;;;;;;4994267;28;20065;-49
2021/08/31 13:13:13;;;;;;;56.70;32.10;;;;;;;;;;4972191;28;20447;-48
2021/08/31 13:15:40;;;;;;;84.88;36.00;;;;;;;;;;4972028;28;20031;-49
2021/08/31 13:18:06;;;;;;;160.80;75.97;;;;;;;;;;4972328;28;20033;-48
2021/08/31 13:20:32;;;;;;;76.57;39.58;;;;;;;;;;4971949;28;20081;-48
2021/08/31 13:22:58;;;;;;;37.80;20.95;;;;;;;;;;4972585;28;20029;-48
2021/08/31 13:25:26;;;;;;;35.40;21.13;;;;;;;;;;4971811;28;20490;-51
2021/08/31 13:27:52;;;;;;;74.10;44.78;;;;;;;;;;4972132;28;20022;-48
2021/08/31 13:30:18;;;;;;;83.40;51.40;;;;;;;;;;4963460;28;20399;-49
2021/08/31 13:32:44;;;;;;;37.38;22.98;;;;;;;;;;4971482;28;20121;-49
2021/08/31 13:35:10;;;;;;;48.50;29.48;;;;;;;;;;4971370;28;20132;-49
2021/08/31 13:37:36;;;;;;;36.30;23.17;;;;;;;;;;4971550;28;20024;-51
2021/08/31 13:40:03;;;;;;;39.90;23.90;;;;;;;;;;4972026;28;20026;-50
2021/08/31 13:42:31;;;;;;;107.75;63.38;;;;;;;;;;4971435;28;20409;-50
2021/08/31 13:44:57;;;;;;;123.32;74.50;;;;;;;;;;4971140;28;20189;-50
2021/08/31 13:47:23;;;;;;;140.00;87.60;;;;;;;;;;4971003;28;20489;-50
2021/08/31 13:49:49;;;;;;;55.63;32.85;;;;;;;;;;4971394;28;20041;-50
2021/08/31 13:52:15;;;;;;;35.75;21.50;;;;;;;;;;4971109;28;20519;-50
2021/08/31 13:54:41;;;;;;;45.90;24.38;;;;;;;;;;4971277;28;20065;-50
2021/08/31 13:57:09;;;;;;;17.63;10.32;;;;;;;;;;4971394;28;20182;-50
2021/08/31 13:59:36;;;;;;;68.10;41.15;;;;;;;;;;4971099;28;20033;-50
2021/08/31 14:02:03;;;;;;;11.73;6.03;;;;;;;;;;4971339;28;20612;-51
2021/08/31 14:04:29;;;;;;;22.65;14.23;;;;;;;;;;4970908;28;20506;-49
2021/08/31 14:06:55;;;;;;;168.48;97.20;;;;;;;;;;4970770;28;20026;-48
2021/08/31 14:09:21;;;;;;;60.30;35.53;;;;;;;;;;4970588;28;20050;-49
2021/08/31 14:11:47;;;;;;;56.63;24.70;;;;;;;;;;4970639;28;20113;-49
2021/08/31 14:14:13;;;;;;;28.67;16.27;;;;;;;;;;4970942;28;20147;-51
2021/08/31 14:16:40;;;;;;;10.35;4.75;;;;;;;;;;4970803;28;20033;-52
2021/08/31 14:19:06;;;;;;;3.95;1.80;;;;;;;;;;4970684;28;20065;-51
2021/08/31 14:21:32;;;;;;;3.22;2.15;;;;;;;;;;4970910;28;20030;-50
2021/08/31 14:23:58;;;;;;;3.70;1.33;;;;;;;;;;4970869;28;20498;-53
2021/08/31 14:26:26;;;;;;;3.47;1.70;;;;;;;;;;4970452;28;20026;-50
2021/08/31 14:28:53;;;;;;;5.72;4.22;;;;;;;;;;4970576;28;20349;-52
2021/08/31 14:31:19;;;;;;;37.55;21.08;;;;;;;;;;4970619;28;20033;-48
2021/08/31 14:33:45;;;;;;;45.03;26.95;;;;;;;;;;4970258;28;20517;-50